sensor_id;sensor_type;location;lat;lon;timestamp;P1;durP1;ratioP1;P2;durP2;ratioP2
19006;SDS011;9636;47.382;8.480;2022-08-02T03:26:59;9.70;;;7.90;;
19006;SDS011;9636;47.382;8.480;2022-08-02T03:29:28;10.57;;;7.97;;
19006;SDS011;9636;47.382;8.480;2022-08-02T03:31:58;10.70;;;8.27;;
19006;SDS011;9636;47.382;8.480;2022-08-02T03:34:25;12.23;;;7.80;;
19006;SDS011;9636;47.382;8.480;2022-08-02T03:36:53;9.47;;;7.63;;
19006;SDS011;9636;47.382;8.480;2022-08-02T03:39:21;10.77;;;7.82;;
19006;SDS011;9636;47.382;8.480;2022-08-02T03:41:48;15.25;;;8.57;;
19006;SDS011;9636;47.382;8.480;2022-08-02T03:44:17;10.07;;;7.95;;
19006;SDS011;9636;47.382;8.480;2022-08-02T03:46:45;10.93;;;7.77;;
19006;SDS011;9636;47.382;8.480;2022-08-02T03:49:12;10.77;;;7.50;;
19006;SDS011;9636;47.382;8.480;2022-08-02T03:51:42;10.97;;;7.87;;
19006;SDS011;9636;47.382;8.480;2022-08-02T03:54:10;8.60;;;7.23;;
19006;SDS011;9636;47.382;8.480;2022-08-02T03:56:37;9.25;;;7.22;;
19006;SDS011;9636;47.382;8.480;2022-08-02T03:59:08;9.13;;;7.35;;
19006;SDS011;9636;47.382;8.480;2022-08-02T04:01:37;8.63;;;7.03;;
19006;SDS011;9636;47.382;8.480;2022-08-02T04:04:04;9.50;;;7.30;;
19006;SDS011;9636;47.382;8.480;2022-08-02T04:06:32;11.75;;;7.60;;
19006;SDS011;9636;47.382;8.480;2022-08-02T04:08:59;9.20;;;7.00;;
19006;SDS011;9636;47.382;8.480;2022-08-02T04:11:26;9.70;;;7.23;;
19006;SDS011;9636;47.382;8.480;2022-08-02T04:13:55;9.33;;;7.27;;
19006;SDS011;9636;47.382;8.480;2022-08-02T04:16:26;9.97;;;7.40;;
19006;SDS011;9636;47.382;8.480;2022-08-02T04:18:59;9.47;;;7.53;;
19006;SDS011;9636;47.382;8.480;2022-08-02T04:21:27;8.83;;;6.80;;
19006;SDS011;9636;47.382;8.480;2022-08-02T04:23:59;8.87;;;7.33;;
19006;SDS011;9636;47.382;8.480;2022-08-02T04:26:29;7.77;;;6.90;;
19006;SDS011;9636;47.382;8.480;2022-08-02T04:28:57;10.37;;;7.23;;
19006;SDS011;9636;47.382;8.480;2022-08-02T04:31:25;8.97;;;6.90;;
19006;SDS011;9636;47.382;8.480;2022-08-02T04:33:52;10.43;;;6.90;;
19006;SDS011;9636;47.382;8.480;2022-08-02T04:36:20;7.97;;;6.53;;
19006;SDS011;9636;47.382;8.480;2022-08-02T04:38:48;8.30;;;6.43;;
19006;SDS011;9636;47.382;8.480;2022-08-02T04:41:15;10.27;;;7.07;;
19006;SDS011;9636;47.382;8.480;2022-08-02T04:43:41;7.75;;;6.78;;
19006;SDS011;9636;47.382;8.480;2022-08-02T04:46:08;7.53;;;6.60;;
19006;SDS011;9636;47.382;8.480;2022-08-02T04:48:35;11.65;;;7.30;;
19006;SDS011;9636;47.382;8.480;2022-08-02T04:51:02;11.30;;;7.10;;
19006;SDS011;9636;47.382;8.480;2022-08-02T04:53:30;8.07;;;7.00;;
19006;SDS011;9636;47.382;8.480;2022-08-02T04:55:57;7.18;;;6.47;;
19006;SDS011;9636;47.382;8.480;2022-08-02T04:58:24;7.57;;;6.65;;
19006;SDS011;9636;47.382;8.480;2022-08-02T05:00:51;10.07;;;8.15;;
19006;SDS011;9636;47.382;8.480;2022-08-02T05:03:18;9.93;;;7.50;;
19006;SDS011;9636;47.382;8.480;2022-08-02T05:05:45;8.25;;;7.15;;
19006;SDS011;9636;47.382;8.480;2022-08-02T05:08:11;9.40;;;7.83;;
19006;SDS011;9636;47.382;8.480;2022-08-02T05:10:40;10.63;;;7.15;;
19006;SDS011;9636;47.382;8.480;2022-08-02T05:13:06;10.07;;;7.75;;
19006;SDS011;9636;47.382;8.480;2022-08-02T05:15:33;9.20;;;7.28;;
19006;SDS011;9636;47.382;8.480;2022-08-02T05:18:00;8.18;;;7.32;;
19006;SDS011;9636;47.382;8.480;2022-08-02T05:20:27;11.32;;;8.07;;
19006;SDS011;9636;47.382;8.480;2022-08-02T05:22:54;9.82;;;7.90;;
19006;SDS011;9636;47.382;8.480;2022-08-02T05:25:21;10.85;;;7.95;;
19006;SDS011;9636;47.382;8.480;2022-08-02T05:27:49;11.27;;;7.82;;
19006;SDS011;9636;47.382;8.480;2022-08-02T05:30:16;9.05;;;7.70;;
19006;SDS011;9636;47.382;8.480;2022-08-02T05:32:44;9.77;;;7.90;;
19006;SDS011;9636;47.382;8.480;2022-08-02T05:35:12;10.05;;;7.43;;
19006;SDS011;9636;47.382;8.480;2022-08-02T05:37:42;9.98;;;7.85;;
19006;SDS011;9636;47.382;8.480;2022-08-02T05:40:11;9.60;;;7.60;;
19006;SDS011;9636;47.382;8.480;2022-08-02T05:42:39;9.25;;;7.25;;
19006;SDS011;9636;47.382;8.480;2022-08-02T05:45:16;11.80;;;7.32;;
19006;SDS011;9636;47.382;8.480;2022-08-02T05:51:09;9.75;;;7.15;;
19006;SDS011;9636;47.382;8.480;2022-08-02T05:56:32;8.55;;;7.30;;
19006;SDS011;9636;47.382;8.480;2022-08-02T06:32:09;7.65;;;6.28;;
19006;SDS011;9636;47.382;8.480;2022-08-02T06:34:36;6.65;;;5.85;;
19006;SDS011;9636;47.382;8.480;2022-08-02T06:37:05;7.13;;;5.65;;
19006;SDS011;9636;47.382;8.480;2022-08-02T06:39:42;6.97;;;5.47;;
19006;SDS011;9636;47.382;8.480;2022-08-02T06:42:11;6.65;;;5.60;;
19006;SDS011;9636;47.382;8.480;2022-08-02T06:44:41;7.97;;;5.68;;
19006;SDS011;9636;47.382;8.480;2022-08-02T06:47:09;8.45;;;5.85;;
19006;SDS011;9636;47.382;8.480;2022-08-02T06:49:36;6.50;;;5.25;;
19006;SDS011;9636;47.382;8.480;2022-08-02T06:52:03;5.43;;;4.85;;
19006;SDS011;9636;47.382;8.480;2022-08-02T06:54:31;9.00;;;5.72;;
19006;SDS011;9636;47.382;8.480;2022-08-02T06:56:58;7.55;;;5.15;;
19006;SDS011;9636;47.382;8.480;2022-08-02T06:59:25;8.43;;;5.13;;
19006;SDS011;9636;47.382;8.480;2022-08-02T07:01:52;9.73;;;5.57;;
19006;SDS011;9636;47.382;8.480;2022-08-02T07:04:20;7.43;;;5.25;;
19006;SDS011;9636;47.382;8.480;2022-08-02T07:06:47;6.95;;;5.10;;
19006;SDS011;9636;47.382;8.480;2022-08-02T07:09:14;5.93;;;4.65;;
19006;SDS011;9636;47.382;8.480;2022-08-02T07:11:41;4.95;;;4.45;;
19006;SDS011;9636;47.382;8.480;2022-08-02T07:14:08;5.70;;;4.32;;
19006;SDS011;9636;47.382;8.480;2022-08-02T07:16:35;6.03;;;4.43;;
19006;SDS011;9636;47.382;8.480;2022-08-02T07:19:01;5.15;;;4.65;;
19006;SDS011;9636;47.382;8.480;2022-08-02T07:21:30;7.60;;;4.80;;
19006;SDS011;9636;47.382;8.480;2022-08-02T07:23:56;5.90;;;4.20;;
19006;SDS011;9636;47.382;8.480;2022-08-02T07:26:23;5.35;;;3.90;;
19006;SDS011;9636;47.382;8.480;2022-08-02T07:28:50;4.43;;;3.63;;
19006;SDS011;9636;47.382;8.480;2022-08-02T07:31:19;7.60;;;3.75;;
19006;SDS011;9636;47.382;8.480;2022-08-02T07:33:45;5.20;;;3.90;;
19006;SDS011;9636;47.382;8.480;2022-08-02T07:36:12;4.22;;;3.63;;
19006;SDS011;9636;47.382;8.480;2022-08-02T07:38:41;4.30;;;3.83;;
19006;SDS011;9636;47.382;8.480;2022-08-02T07:41:07;5.57;;;3.78;;
19006;SDS011;9636;47.382;8.480;2022-08-02T07:43:34;3.50;;;3.20;;
19006;SDS011;9636;47.382;8.480;2022-08-02T07:46:01;4.28;;;3.25;;
19006;SDS011;9636;47.382;8.480;2022-08-02T07:48:28;3.92;;;3.40;;
19006;SDS011;9636;47.382;8.480;2022-08-02T07:50:55;3.78;;;3.20;;
19006;SDS011;9636;47.382;8.480;2022-08-02T07:53:22;3.22;;;2.92;;
19006;SDS011;9636;47.382;8.480;2022-08-02T07:55:50;3.78;;;3.30;;
19006;SDS011;9636;47.382;8.480;2022-08-02T07:58:17;3.40;;;3.10;;
19006;SDS011;9636;47.382;8.480;2022-08-02T08:00:44;4.43;;;3.25;;
19006;SDS011;9636;47.382;8.480;2022-08-02T08:03:11;3.67;;;2.97;;
19006;SDS011;9636;47.382;8.480;2022-08-02T08:05:38;3.30;;;2.90;;
19006;SDS011;9636;47.382;8.480;2022-08-02T08:08:05;3.67;;;2.92;;
19006;SDS011;9636;47.382;8.480;2022-08-02T08:10:31;3.45;;;2.95;;
19006;SDS011;9636;47.382;8.480;2022-08-02T08:12:59;2.80;;;2.60;;
19006;SDS011;9636;47.382;8.480;2022-08-02T08:15:26;3.65;;;2.85;;
19006;SDS011;9636;47.382;8.480;2022-08-02T08:17:53;2.92;;;2.47;;
19006;SDS011;9636;47.382;8.480;2022-08-02T08:20:20;3.42;;;2.80;;
19006;SDS011;9636;47.382;8.480;2022-08-02T08:22:47;4.00;;;3.40;;
19006;SDS011;9636;47.382;8.480;2022-08-02T08:25:14;5.53;;;3.10;;
19006;SDS011;9636;47.382;8.480;2022-08-02T08:27:46;3.95;;;3.10;;
19006;SDS011;9636;47.382;8.480;2022-08-02T08:30:15;3.50;;;3.20;;
19006;SDS011;9636;47.382;8.480;2022-08-02T08:32:42;4.30;;;3.42;;
19006;SDS011;9636;47.382;8.480;2022-08-02T08:35:09;4.28;;;3.85;;
19006;SDS011;9636;47.382;8.480;2022-08-02T08:37:36;4.60;;;3.83;;
19006;SDS011;9636;47.382;8.480;2022-08-02T08:40:04;3.50;;;3.20;;
19006;SDS011;9636;47.382;8.480;2022-08-02T08:42:31;4.05;;;3.65;;
19006;SDS011;9636;47.382;8.480;2022-08-02T08:44:58;4.00;;;3.40;;
19006;SDS011;9636;47.382;8.480;2022-08-02T08:47:27;3.83;;;3.25;;
19006;SDS011;9636;47.382;8.480;2022-08-02T08:49:59;4.03;;;3.63;;
19006;SDS011;9636;47.382;8.480;2022-08-02T08:52:28;4.28;;;3.83;;
19006;SDS011;9636;47.382;8.480;2022-08-02T08:55:00;4.63;;;4.15;;
19006;SDS011;9636;47.382;8.480;2022-08-02T08:57:33;3.80;;;3.38;;
19006;SDS011;9636;47.382;8.480;2022-08-02T09:00:04;4.50;;;3.15;;
19006;SDS011;9636;47.382;8.480;2022-08-02T09:02:33;4.95;;;4.45;;
19006;SDS011;9636;47.382;8.480;2022-08-02T09:05:06;5.55;;;4.13;;
19006;SDS011;9636;47.382;8.480;2022-08-02T09:07:35;4.63;;;4.10;;
19006;SDS011;9636;47.382;8.480;2022-08-02T09:10:05;7.03;;;4.60;;
19006;SDS011;9636;47.382;8.480;2022-08-02T09:13:04;5.47;;;4.75;;
19006;SDS011;9636;47.382;8.480;2022-08-02T09:15:32;7.90;;;4.82;;
19006;SDS011;9636;47.382;8.480;2022-08-02T09:18:01;4.53;;;4.05;;
19006;SDS011;9636;47.382;8.480;2022-08-02T09:20:28;4.35;;;3.90;;
19006;SDS011;9636;47.382;8.480;2022-08-02T09:23:04;5.53;;;4.53;;
19006;SDS011;9636;47.382;8.480;2022-08-02T09:25:31;5.60;;;4.20;;
19006;SDS011;9636;47.382;8.480;2022-08-02T09:27:58;6.57;;;4.53;;
19006;SDS011;9636;47.382;8.480;2022-08-02T09:30:26;4.47;;;4.07;;
19006;SDS011;9636;47.382;8.480;2022-08-02T09:32:53;5.63;;;4.13;;
19006;SDS011;9636;47.382;8.480;2022-08-02T09:35:31;4.63;;;4.18;;
19006;SDS011;9636;47.382;8.480;2022-08-02T09:38:07;6.82;;;4.70;;
19006;SDS011;9636;47.382;8.480;2022-08-02T09:40:35;4.80;;;4.30;;
19006;SDS011;9636;47.382;8.480;2022-08-02T09:43:03;5.88;;;4.55;;
19006;SDS011;9636;47.382;8.480;2022-08-02T09:45:30;4.85;;;4.30;;
19006;SDS011;9636;47.382;8.480;2022-08-02T09:47:59;4.85;;;4.35;;
19006;SDS011;9636;47.382;8.480;2022-08-02T09:50:27;5.40;;;4.53;;
19006;SDS011;9636;47.382;8.480;2022-08-02T09:52:55;4.32;;;3.92;;
19006;SDS011;9636;47.382;8.480;2022-08-02T09:55:23;4.85;;;4.35;;
19006;SDS011;9636;47.382;8.480;2022-08-02T09:57:51;4.97;;;4.28;;
19006;SDS011;9636;47.382;8.480;2022-08-02T10:00:18;6.20;;;4.30;;
19006;SDS011;9636;47.382;8.480;2022-08-02T10:03:05;4.35;;;3.92;;
19006;SDS011;9636;47.382;8.480;2022-08-02T10:05:46;5.90;;;4.38;;
19006;SDS011;9636;47.382;8.480;2022-08-02T10:08:15;5.03;;;4.00;;
19006;SDS011;9636;47.382;8.480;2022-08-02T10:10:43;5.85;;;4.10;;
19006;SDS011;9636;47.382;8.480;2022-08-02T10:13:10;6.15;;;4.03;;
19006;SDS011;9636;47.382;8.480;2022-08-02T10:15:38;5.38;;;4.10;;
19006;SDS011;9636;47.382;8.480;2022-08-02T10:18:05;5.63;;;4.47;;
19006;SDS011;9636;47.382;8.480;2022-08-02T10:20:35;5.05;;;4.13;;
19006;SDS011;9636;47.382;8.480;2022-08-02T10:23:05;6.07;;;4.20;;
19006;SDS011;9636;47.382;8.480;2022-08-02T10:25:36;4.80;;;4.30;;
19006;SDS011;9636;47.382;8.480;2022-08-02T10:28:04;4.18;;;3.78;;
19006;SDS011;9636;47.382;8.480;2022-08-02T10:30:32;5.55;;;4.18;;
19006;SDS011;9636;47.382;8.480;2022-08-02T10:33:01;4.18;;;3.78;;
19006;SDS011;9636;47.382;8.480;2022-08-02T10:35:31;3.70;;;3.40;;
19006;SDS011;9636;47.382;8.480;2022-08-02T10:38:02;6.63;;;3.97;;
19006;SDS011;9636;47.382;8.480;2022-08-02T10:40:42;5.72;;;4.07;;
19006;SDS011;9636;47.382;8.480;2022-08-02T10:46:21;6.55;;;3.80;;
19006;SDS011;9636;47.382;8.480;2022-08-02T10:49:03;3.97;;;3.58;;
19006;SDS011;9636;47.382;8.480;2022-08-02T10:54:34;4.82;;;3.80;;
19006;SDS011;9636;47.382;8.480;2022-08-02T10:57:12;4.05;;;3.65;;
19006;SDS011;9636;47.382;8.480;2022-08-02T10:59:44;5.45;;;4.20;;
19006;SDS011;9636;47.382;8.480;2022-08-02T11:02:11;5.63;;;4.10;;
19006;SDS011;9636;47.382;8.480;2022-08-02T11:07:32;4.57;;;3.80;;
19006;SDS011;9636;47.382;8.480;2022-08-02T11:13:05;4.72;;;3.67;;
19006;SDS011;9636;47.382;8.480;2022-08-02T11:15:47;3.83;;;3.42;;
19006;SDS011;9636;47.382;8.480;2022-08-02T11:18:21;4.50;;;3.53;;
19006;SDS011;9636;47.382;8.480;2022-08-02T11:23:47;3.83;;;3.53;;
19006;SDS011;9636;47.382;8.480;2022-08-02T11:29:11;3.65;;;3.20;;
19006;SDS011;9636;47.382;8.480;2022-08-02T11:31:39;4.75;;;3.70;;
19006;SDS011;9636;47.382;8.480;2022-08-02T11:34:08;4.60;;;3.42;;
19006;SDS011;9636;47.382;8.480;2022-08-02T11:36:42;3.30;;;3.00;;
19006;SDS011;9636;47.382;8.480;2022-08-02T11:39:14;5.22;;;3.00;;
19006;SDS011;9636;47.382;8.480;2022-08-02T11:41:47;2.97;;;2.67;;
19006;SDS011;9636;47.382;8.480;2022-08-02T11:44:16;3.35;;;3.05;;
19006;SDS011;9636;47.382;8.480;2022-08-02T11:46:43;3.97;;;3.08;;
19006;SDS011;9636;47.382;8.480;2022-08-02T11:49:11;3.10;;;2.90;;
19006;SDS011;9636;47.382;8.480;2022-08-02T11:51:49;3.95;;;2.95;;
19006;SDS011;9636;47.382;8.480;2022-08-02T11:57:21;3.40;;;3.10;;
19006;SDS011;9636;47.382;8.480;2022-08-02T11:59:50;4.53;;;3.25;;
19006;SDS011;9636;47.382;8.480;2022-08-02T12:02:18;3.80;;;3.20;;
19006;SDS011;9636;47.382;8.480;2022-08-02T12:04:53;4.20;;;3.42;;
19006;SDS011;9636;47.382;8.480;2022-08-02T12:07:24;3.78;;;2.90;;
19006;SDS011;9636;47.382;8.480;2022-08-02T12:09:53;5.10;;;3.20;;
19006;SDS011;9636;47.382;8.480;2022-08-02T12:12:25;4.13;;;3.30;;
19006;SDS011;9636;47.382;8.480;2022-08-02T12:14:53;3.45;;;2.90;;
19006;SDS011;9636;47.382;8.480;2022-08-02T12:17:21;3.80;;;3.17;;
19006;SDS011;9636;47.382;8.480;2022-08-02T12:20:06;3.03;;;2.72;;
19006;SDS011;9636;47.382;8.480;2022-08-02T12:22:33;4.90;;;3.15;;
19006;SDS011;9636;47.382;8.480;2022-08-02T12:25:14;3.47;;;3.00;;
19006;SDS011;9636;47.382;8.480;2022-08-02T12:27:42;4.45;;;2.90;;
19006;SDS011;9636;47.382;8.480;2022-08-02T12:30:11;3.22;;;2.92;;
19006;SDS011;9636;47.382;8.480;2022-08-02T12:32:40;4.13;;;3.10;;
19006;SDS011;9636;47.382;8.480;2022-08-02T12:35:08;4.97;;;3.00;;
19006;SDS011;9636;47.382;8.480;2022-08-02T12:37:37;3.42;;;3.13;;
19006;SDS011;9636;47.382;8.480;2022-08-02T12:40:16;3.60;;;3.15;;
19006;SDS011;9636;47.382;8.480;2022-08-02T12:42:45;3.72;;;2.90;;
19006;SDS011;9636;47.382;8.480;2022-08-02T12:45:13;3.10;;;2.80;;
19006;SDS011;9636;47.382;8.480;2022-08-02T12:47:43;3.20;;;2.90;;
19006;SDS011;9636;47.382;8.480;2022-08-02T12:50:11;3.03;;;2.70;;
19006;SDS011;9636;47.382;8.480;2022-08-02T12:52:39;3.30;;;2.72;;
19006;SDS011;9636;47.382;8.480;2022-08-02T12:55:19;4.53;;;2.80;;
19006;SDS011;9636;47.382;8.480;2022-08-02T12:57:51;3.13;;;2.80;;
19006;SDS011;9636;47.382;8.480;2022-08-02T13:00:24;4.80;;;2.97;;
19006;SDS011;9636;47.382;8.480;2022-08-02T13:02:52;4.13;;;2.92;;
19006;SDS011;9636;47.382;8.480;2022-08-02T13:05:19;4.97;;;3.00;;
19006;SDS011;9636;47.382;8.480;2022-08-02T13:07:46;3.13;;;2.65;;
19006;SDS011;9636;47.382;8.480;2022-08-02T13:10:13;4.93;;;2.88;;
19006;SDS011;9636;47.382;8.480;2022-08-02T13:12:41;4.32;;;2.90;;
19006;SDS011;9636;47.382;8.480;2022-08-02T13:15:08;3.05;;;2.65;;
19006;SDS011;9636;47.382;8.480;2022-08-02T13:17:37;2.90;;;2.70;;
19006;SDS011;9636;47.382;8.480;2022-08-02T13:20:04;2.85;;;2.55;;
19006;SDS011;9636;47.382;8.480;2022-08-02T13:22:32;3.40;;;2.50;;
19006;SDS011;9636;47.382;8.480;2022-08-02T13:24:59;2.90;;;2.70;;
19006;SDS011;9636;47.382;8.480;2022-08-02T13:27:26;2.60;;;2.40;;
19006;SDS011;9636;47.382;8.480;2022-08-02T13:29:54;3.25;;;2.47;;
19006;SDS011;9636;47.382;8.480;2022-08-02T13:32:22;4.82;;;3.00;;
19006;SDS011;9636;47.382;8.480;2022-08-02T13:34:51;2.95;;;2.60;;
19006;SDS011;9636;47.382;8.480;2022-08-02T13:37:18;3.40;;;2.45;;
19006;SDS011;9636;47.382;8.480;2022-08-02T13:39:45;3.20;;;2.60;;
19006;SDS011;9636;47.382;8.480;2022-08-02T13:42:12;4.68;;;3.00;;
19006;SDS011;9636;47.382;8.480;2022-08-02T13:44:39;2.60;;;2.40;;
19006;SDS011;9636;47.382;8.480;2022-08-02T13:47:06;3.20;;;2.80;;
19006;SDS011;9636;47.382;8.480;2022-08-02T13:49:35;3.00;;;2.70;;
19006;SDS011;9636;47.382;8.480;2022-08-02T13:52:04;6.35;;;3.20;;
19006;SDS011;9636;47.382;8.480;2022-08-02T13:54:31;5.45;;;2.70;;
19006;SDS011;9636;47.382;8.480;2022-08-02T13:56:58;4.90;;;2.72;;
19006;SDS011;9636;47.382;8.480;2022-08-02T13:59:25;3.72;;;2.67;;
19006;SDS011;9636;47.382;8.480;2022-08-02T14:01:52;4.00;;;2.50;;
19006;SDS011;9636;47.382;8.480;2022-08-02T14:04:20;2.90;;;2.60;;
19006;SDS011;9636;47.382;8.480;2022-08-02T14:06:47;2.67;;;2.47;;
19006;SDS011;9636;47.382;8.480;2022-08-02T14:09:15;2.83;;;2.60;;
19006;SDS011;9636;47.382;8.480;2022-08-02T14:11:42;4.55;;;2.83;;
19006;SDS011;9636;47.382;8.480;2022-08-02T14:14:09;3.00;;;2.80;;
19006;SDS011;9636;47.382;8.480;2022-08-02T14:16:36;2.80;;;2.55;;
19006;SDS011;9636;47.382;8.480;2022-08-02T14:19:03;3.83;;;2.80;;
19006;SDS011;9636;47.382;8.480;2022-08-02T14:21:30;3.47;;;3.17;;
19006;SDS011;9636;47.382;8.480;2022-08-02T14:23:57;3.28;;;2.60;;
19006;SDS011;9636;47.382;8.480;2022-08-02T14:26:25;2.85;;;2.58;;
19006;SDS011;9636;47.382;8.480;2022-08-02T14:28:52;3.17;;;2.80;;
19006;SDS011;9636;47.382;8.480;2022-08-02T14:31:18;4.43;;;2.88;;
19006;SDS011;9636;47.382;8.480;2022-08-02T14:33:45;2.83;;;2.60;;
19006;SDS011;9636;47.382;8.480;2022-08-02T14:36:12;4.25;;;2.75;;
19006;SDS011;9636;47.382;8.480;2022-08-02T14:38:39;3.70;;;2.35;;
19006;SDS011;9636;47.382;8.480;2022-08-02T14:41:06;5.55;;;2.60;;
19006;SDS011;9636;47.382;8.480;2022-08-02T14:43:34;4.63;;;2.70;;
19006;SDS011;9636;47.382;8.480;2022-08-02T14:46:18;2.85;;;2.50;;
19006;SDS011;9636;47.382;8.480;2022-08-02T14:48:45;4.95;;;3.00;;
19006;SDS011;9636;47.382;8.480;2022-08-02T14:51:12;4.10;;;2.67;;
19006;SDS011;9636;47.382;8.480;2022-08-02T14:53:39;4.47;;;2.80;;
19006;SDS011;9636;47.382;8.480;2022-08-02T14:56:05;3.10;;;2.90;;
19006;SDS011;9636;47.382;8.480;2022-08-02T14:58:34;3.95;;;2.60;;
19006;SDS011;9636;47.382;8.480;2022-08-02T15:01:00;5.07;;;2.90;;
19006;SDS011;9636;47.382;8.480;2022-08-02T15:03:27;3.85;;;2.70;;
19006;SDS011;9636;47.382;8.480;2022-08-02T15:05:54;4.45;;;2.78;;
19006;SDS011;9636;47.382;8.480;2022-08-02T15:08:21;4.05;;;2.78;;
19006;SDS011;9636;47.382;8.480;2022-08-02T15:10:48;2.90;;;2.40;;
19006;SDS011;9636;47.382;8.480;2022-08-02T15:13:14;3.58;;;2.60;;
19006;SDS011;9636;47.382;8.480;2022-08-02T15:15:48;3.30;;;2.67;;
19006;SDS011;9636;47.382;8.480;2022-08-02T15:18:29;4.45;;;2.90;;
19006;SDS011;9636;47.382;8.480;2022-08-02T15:21:09;3.22;;;2.90;;
19006;SDS011;9636;47.382;8.480;2022-08-02T15:23:37;2.92;;;2.40;;
19006;SDS011;9636;47.382;8.480;2022-08-02T15:26:04;2.83;;;2.50;;
19006;SDS011;9636;47.382;8.480;2022-08-02T15:28:31;3.58;;;2.90;;
19006;SDS011;9636;47.382;8.480;2022-08-02T15:31:00;3.47;;;2.58;;
19006;SDS011;9636;47.382;8.480;2022-08-02T15:33:27;4.35;;;2.92;;
19006;SDS011;9636;47.382;8.480;2022-08-02T15:35:53;3.05;;;2.53;;
19006;SDS011;9636;47.382;8.480;2022-08-02T15:38:20;2.63;;;2.42;;
19006;SDS011;9636;47.382;8.480;2022-08-02T15:40:47;2.97;;;2.38;;
19006;SDS011;9636;47.382;8.480;2022-08-02T15:43:14;3.60;;;2.65;;
19006;SDS011;9636;47.382;8.480;2022-08-02T15:45:41;3.30;;;2.60;;
19006;SDS011;9636;47.382;8.480;2022-08-02T15:48:09;2.70;;;2.50;;
19006;SDS011;9636;47.382;8.480;2022-08-02T15:50:35;2.97;;;2.67;;
19006;SDS011;9636;47.382;8.480;2022-08-02T15:53:02;3.22;;;2.38;;
19006;SDS011;9636;47.382;8.480;2022-08-02T15:55:29;2.88;;;2.58;;
19006;SDS011;9636;47.382;8.480;2022-08-02T15:57:56;2.80;;;2.60;;
19006;SDS011;9636;47.382;8.480;2022-08-02T16:00:22;3.50;;;2.80;;
19006;SDS011;9636;47.382;8.480;2022-08-02T16:02:49;3.78;;;2.55;;
19006;SDS011;9636;47.382;8.480;2022-08-02T16:05:17;3.38;;;3.03;;
19006;SDS011;9636;47.382;8.480;2022-08-02T16:07:45;4.50;;;3.03;;
19006;SDS011;9636;47.382;8.480;2022-08-02T16:10:12;2.83;;;2.63;;
19006;SDS011;9636;47.382;8.480;2022-08-02T16:12:38;3.00;;;2.70;;
19006;SDS011;9636;47.382;8.480;2022-08-02T16:15:06;4.03;;;3.63;;
19006;SDS011;9636;47.382;8.480;2022-08-02T16:17:33;4.40;;;3.20;;
19006;SDS011;9636;47.382;8.480;2022-08-02T16:20:00;5.57;;;5.07;;
19006;SDS011;9636;47.382;8.480;2022-08-02T16:22:28;6.53;;;4.22;;
19006;SDS011;9636;47.382;8.480;2022-08-02T16:24:55;6.90;;;3.50;;
19006;SDS011;9636;47.382;8.480;2022-08-02T16:27:22;3.40;;;3.10;;
19006;SDS011;9636;47.382;8.480;2022-08-02T16:29:49;3.13;;;2.35;;
19006;SDS011;9636;47.382;8.480;2022-08-02T16:32:15;3.00;;;2.70;;
19006;SDS011;9636;47.382;8.480;2022-08-02T16:34:42;3.00;;;2.70;;
19006;SDS011;9636;47.382;8.480;2022-08-02T16:37:09;3.55;;;2.92;;
19006;SDS011;9636;47.382;8.480;2022-08-02T16:39:37;2.53;;;2.33;;
19006;SDS011;9636;47.382;8.480;2022-08-02T16:42:05;3.58;;;2.92;;
19006;SDS011;9636;47.382;8.480;2022-08-02T16:44:32;3.42;;;2.50;;
19006;SDS011;9636;47.382;8.480;2022-08-02T16:46:58;3.13;;;2.83;;
19006;SDS011;9636;47.382;8.480;2022-08-02T16:49:25;3.60;;;2.80;;
19006;SDS011;9636;47.382;8.480;2022-08-02T16:51:52;3.00;;;2.42;;
19006;SDS011;9636;47.382;8.480;2022-08-02T16:54:19;3.17;;;2.67;;
19006;SDS011;9636;47.382;8.480;2022-08-02T16:56:47;5.30;;;2.90;;
19006;SDS011;9636;47.382;8.480;2022-08-02T16:59:15;3.25;;;2.50;;
19006;SDS011;9636;47.382;8.480;2022-08-02T17:01:42;3.45;;;2.90;;
19006;SDS011;9636;47.382;8.480;2022-08-02T17:04:09;5.18;;;3.08;;
19006;SDS011;9636;47.382;8.480;2022-08-02T17:06:36;5.10;;;2.83;;
19006;SDS011;9636;47.382;8.480;2022-08-02T17:09:03;6.35;;;2.55;;
19006;SDS011;9636;47.382;8.480;2022-08-02T17:11:30;5.55;;;3.00;;
19006;SDS011;9636;47.382;8.480;2022-08-02T17:13:58;3.25;;;2.85;;
19006;SDS011;9636;47.382;8.480;2022-08-02T17:16:25;3.33;;;2.85;;
19006;SDS011;9636;47.382;8.480;2022-08-02T17:18:52;5.50;;;2.72;;
19006;SDS011;9636;47.382;8.480;2022-08-02T17:21:20;3.00;;;2.70;;
19006;SDS011;9636;47.382;8.480;2022-08-02T17:23:49;4.18;;;2.88;;
19006;SDS011;9636;47.382;8.480;2022-08-02T17:26:31;4.75;;;2.53;;
19006;SDS011;9636;47.382;8.480;2022-08-02T17:40:51;4.50;;;2.85;;
19006;SDS011;9636;47.382;8.480;2022-08-02T17:50:21;4.57;;;3.33;;
19006;SDS011;9636;47.382;8.480;2022-08-02T17:53:22;4.93;;;3.58;;
19006;SDS011;9636;47.382;8.480;2022-08-02T17:55:51;3.17;;;2.83;;
19006;SDS011;9636;47.382;8.480;2022-08-02T17:58:17;3.40;;;3.10;;
19006;SDS011;9636;47.382;8.480;2022-08-02T18:00:44;3.72;;;3.22;;
19006;SDS011;9636;47.382;8.480;2022-08-02T18:03:11;7.60;;;3.33;;
19006;SDS011;9636;47.382;8.480;2022-08-02T18:05:38;6.35;;;3.20;;
19006;SDS011;9636;47.382;8.480;2022-08-02T18:08:11;3.35;;;2.70;;
19006;SDS011;9636;47.382;8.480;2022-08-02T18:10:39;5.28;;;2.75;;
19006;SDS011;9636;47.382;8.480;2022-08-02T18:13:08;3.85;;;2.67;;
19006;SDS011;9636;47.382;8.480;2022-08-02T18:15:34;4.53;;;3.30;;
19006;SDS011;9636;47.382;8.480;2022-08-02T18:18:01;4.55;;;2.78;;
19006;SDS011;9636;47.382;8.480;2022-08-02T18:20:28;5.22;;;3.15;;
19006;SDS011;9636;47.382;8.480;2022-08-02T18:22:55;5.28;;;3.10;;
19006;SDS011;9636;47.382;8.480;2022-08-02T18:25:22;4.53;;;3.28;;
19006;SDS011;9636;47.382;8.480;2022-08-02T18:27:49;4.20;;;3.10;;
19006;SDS011;9636;47.382;8.480;2022-08-02T18:30:17;6.18;;;3.40;;
19006;SDS011;9636;47.382;8.480;2022-08-02T18:32:44;5.85;;;3.22;;
19006;SDS011;9636;47.382;8.480;2022-08-02T18:35:11;5.22;;;3.53;;
19006;SDS011;9636;47.382;8.480;2022-08-02T18:37:38;4.97;;;2.95;;
19006;SDS011;9636;47.382;8.480;2022-08-02T18:40:05;8.57;;;3.53;;
19006;SDS011;9636;47.382;8.480;2022-08-02T18:42:33;10.82;;;3.45;;
19006;SDS011;9636;47.382;8.480;2022-08-02T18:45:00;7.85;;;3.92;;
19006;SDS011;9636;47.382;8.480;2022-08-02T18:47:28;7.10;;;3.70;;
19006;SDS011;9636;47.382;8.480;2022-08-02T18:49:56;5.18;;;3.65;;
19006;SDS011;9636;47.382;8.480;2022-08-02T18:52:23;6.50;;;3.55;;
19006;SDS011;9636;47.382;8.480;2022-08-02T18:54:50;10.82;;;3.40;;
19006;SDS011;9636;47.382;8.480;2022-08-02T18:57:16;5.00;;;3.20;;
19006;SDS011;9636;47.382;8.480;2022-08-02T18:59:43;5.80;;;3.25;;
19006;SDS011;9636;47.382;8.480;2022-08-02T19:02:12;5.75;;;3.65;;
19006;SDS011;9636;47.382;8.480;2022-08-02T19:04:43;11.30;;;3.92;;
19006;SDS011;9636;47.382;8.480;2022-08-02T19:07:10;11.77;;;3.70;;
19006;SDS011;9636;47.382;8.480;2022-08-02T19:09:37;16.13;;;3.88;;
19006;SDS011;9636;47.382;8.480;2022-08-02T19:12:04;7.50;;;3.33;;
19006;SDS011;9636;47.382;8.480;2022-08-02T19:14:31;6.32;;;3.50;;
19006;SDS011;9636;47.382;8.480;2022-08-02T19:16:58;4.95;;;3.40;;
19006;SDS011;9636;47.382;8.480;2022-08-02T19:19:25;8.02;;;3.13;;
19006;SDS011;9636;47.382;8.480;2022-08-02T19:21:53;6.53;;;3.15;;
19006;SDS011;9636;47.382;8.480;2022-08-02T19:24:21;4.35;;;2.95;;
19006;SDS011;9636;47.382;8.480;2022-08-02T19:26:48;5.55;;;2.63;;
19006;SDS011;9636;47.382;8.480;2022-08-02T19:29:15;4.18;;;3.22;;
19006;SDS011;9636;47.382;8.480;2022-08-02T19:31:42;7.60;;;3.03;;
19006;SDS011;9636;47.382;8.480;2022-08-02T19:34:09;5.75;;;2.70;;
19006;SDS011;9636;47.382;8.480;2022-08-02T19:36:36;4.93;;;2.60;;
19006;SDS011;9636;47.382;8.480;2022-08-02T19:39:04;7.43;;;2.75;;
19006;SDS011;9636;47.382;8.480;2022-08-02T19:41:31;3.58;;;2.50;;
19006;SDS011;9636;47.382;8.480;2022-08-02T19:43:58;3.75;;;2.53;;
19006;SDS011;9636;47.382;8.480;2022-08-02T19:46:24;3.80;;;2.25;;
19006;SDS011;9636;47.382;8.480;2022-08-02T19:48:51;2.70;;;2.00;;
19006;SDS011;9636;47.382;8.480;2022-08-02T19:51:18;5.70;;;1.75;;
19006;SDS011;9636;47.382;8.480;2022-08-02T19:53:45;2.85;;;1.88;;